createdAt,value
2022-10-30T00:00:49.925Z,17.87
2022-10-30T00:03:18.439Z,17.90
2022-10-30T00:05:49.594Z,16.37
2022-10-30T00:08:20.993Z,17.30
2022-10-30T00:10:50.416Z,15.23
2022-10-30T00:13:19.079Z,18.47
2022-10-30T00:15:52.233Z,16.63
2022-10-30T00:18:20.495Z,16.27
2022-10-30T00:20:50.127Z,15.83
2022-10-30T00:23:18.090Z,15.40
2022-10-30T00:25:46.143Z,15.93
2022-10-30T00:28:14.168Z,13.17
2022-10-30T00:30:42.125Z,15.03
2022-10-30T00:33:10.200Z,14.63
2022-10-30T00:35:38.363Z,15.17
2022-10-30T00:38:07.671Z,14.77
2022-10-30T00:40:35.576Z,12.63
2022-10-30T00:43:03.705Z,13.37
2022-10-30T00:45:31.999Z,13.73
2022-10-30T00:48:03.050Z,12.83
2022-10-30T00:50:33.513Z,12.07
2022-10-30T00:53:05.996Z,11.40
2022-10-30T00:55:39.225Z,11.53
2022-10-30T00:58:11.911Z,12.43
2022-10-30T01:00:42.797Z,8.87
2022-10-30T01:03:11.419Z,11.60
2022-10-30T01:05:40.722Z,10.77
2022-10-30T01:08:08.768Z,9.73
2022-10-30T01:10:38.857Z,9.33
2022-10-30T01:13:07.645Z,9.87
2022-10-30T01:15:39.264Z,9.73
2022-10-30T01:18:29.871Z,10.83
2022-10-30T01:21:32.174Z,10.10
2022-10-30T01:24:15.661Z,9.03
2022-10-30T01:26:53.952Z,8.80
2022-10-30T01:29:35.615Z,8.33
2022-10-30T01:32:19.241Z,8.73
2022-10-30T01:34:56.374Z,7.97
2022-10-30T01:37:32.876Z,9.43
2022-10-30T01:40:06.594Z,7.70
2022-10-30T01:42:51.124Z,7.97
2022-10-30T01:45:32.354Z,7.70
2022-10-30T01:48:19.420Z,7.30
2022-10-30T01:50:55.072Z,7.13
2022-10-30T01:53:38.101Z,7.93
2022-10-30T01:56:16.849Z,7.47
2022-10-30T01:58:52.699Z,7.47
2022-10-30T02:01:22.015Z,7.53
2022-10-30T02:03:50.504Z,8.17
2022-10-30T02:06:18.991Z,7.40
2022-10-30T02:08:46.971Z,7.50
2022-10-30T02:11:15.605Z,7.47
2022-10-30T02:13:43.879Z,7.60
2022-10-30T02:16:13.232Z,6.57
2022-10-30T02:18:41.746Z,6.97
2022-10-30T02:21:11.248Z,8.33
2022-10-30T02:23:39.259Z,7.20
2022-10-30T02:26:07.449Z,6.93
2022-10-30T02:28:35.480Z,8.10
2022-10-30T02:31:03.508Z,7.43
2022-10-30T02:33:31.420Z,6.00
2022-10-30T02:35:59.525Z,7.87
2022-10-30T02:38:28.754Z,7.07
2022-10-30T02:40:58.735Z,7.83
2022-10-30T02:43:26.711Z,6.83
2022-10-30T02:45:55.465Z,7.00
2022-10-30T02:48:23.410Z,7.53
2022-10-30T02:50:51.244Z,7.60
2022-10-30T02:53:19.144Z,7.23
2022-10-30T02:55:48.462Z,7.20
2022-10-30T02:58:16.543Z,7.87
2022-10-30T03:00:44.645Z,7.37
2022-10-30T03:03:12.616Z,6.83
2022-10-30T03:05:40.925Z,7.53
2022-10-30T03:08:08.998Z,7.17
2022-10-30T03:10:37.034Z,7.07
2022-10-30T03:13:06.390Z,6.77
2022-10-30T03:15:34.291Z,7.57
2022-10-30T03:18:02.241Z,8.33
2022-10-30T03:20:30.169Z,7.17
2022-10-30T03:22:58.207Z,7.63
2022-10-30T03:25:26.263Z,6.77
2022-10-30T03:27:54.202Z,6.10
2022-10-30T03:30:23.501Z,6.60
2022-10-30T03:32:51.504Z,7.03
2022-10-30T03:35:19.463Z,7.03
2022-10-30T03:37:47.472Z,7.40
2022-10-30T03:40:15.544Z,6.37
2022-10-30T03:42:43.511Z,6.57
2022-10-30T03:45:11.907Z,6.73
2022-10-30T03:47:42.504Z,6.37
2022-10-30T03:50:10.932Z,6.57
2022-10-30T03:52:38.916Z,7.50
2022-10-30T03:55:07.881Z,7.47
2022-10-30T03:57:38.285Z,7.20
2022-10-30T04:00:07.474Z,7.10
2022-10-30T04:02:35.386Z,6.67
2022-10-30T04:05:05.079Z,7.97
2022-10-30T04:07:33.048Z,7.40
2022-10-30T04:10:01.117Z,6.90
2022-10-30T04:12:29.055Z,7.67
2022-10-30T04:14:57.323Z,8.13
2022-10-30T04:17:25.259Z,7.23
2022-10-30T04:19:53.281Z,6.87
2022-10-30T04:22:22.656Z,6.97
2022-10-30T04:24:50.794Z,7.47
2022-10-30T04:27:20.017Z,6.90
2022-10-30T04:29:48.260Z,7.60
2022-10-30T04:32:16.218Z,6.27
2022-10-30T04:34:44.236Z,6.73
2022-10-30T04:37:12.200Z,6.97
2022-10-30T04:39:45.464Z,7.80
2022-10-30T04:42:14.698Z,8.00
2022-10-30T04:44:42.814Z,7.47
2022-10-30T04:47:10.694Z,7.40
2022-10-30T04:49:38.764Z,7.63
2022-10-30T04:52:06.663Z,7.53
2022-10-30T04:54:34.611Z,6.57
2022-10-30T04:57:04.450Z,6.97
2022-10-30T04:59:32.421Z,6.90
2022-10-30T05:02:00.506Z,6.73
2022-10-30T05:04:28.625Z,7.13
2022-10-30T05:06:56.513Z,7.93
2022-10-30T05:09:24.498Z,7.27
2022-10-30T05:11:54.919Z,6.47
2022-10-30T05:14:30.329Z,6.70
2022-10-30T05:16:58.501Z,6.73
2022-10-30T05:19:26.723Z,8.17
2022-10-30T05:21:55.532Z,7.03
2022-10-30T05:24:23.470Z,6.73
2022-10-30T05:26:52.127Z,6.47
2022-10-30T05:29:20.033Z,7.10
2022-10-30T05:31:49.355Z,6.60
2022-10-30T05:34:17.386Z,7.40
2022-10-30T05:36:45.425Z,7.10
2022-10-30T05:39:13.426Z,6.53
2022-10-30T05:41:41.328Z,6.73
2022-10-30T05:44:09.230Z,7.47
2022-10-30T05:46:37.070Z,7.30
2022-10-30T05:49:06.305Z,6.43
2022-10-30T05:51:37.954Z,6.27
2022-10-30T05:54:08.453Z,7.30
2022-10-30T05:56:36.388Z,6.97
2022-10-30T05:59:04.376Z,6.73
2022-10-30T06:01:32.418Z,7.53
2022-10-30T06:04:00.606Z,7.57
2022-10-30T06:06:30.028Z,7.40
2022-10-30T06:08:57.969Z,5.93
2022-10-30T06:11:25.957Z,6.07
2022-10-30T06:13:53.963Z,6.57
2022-10-30T06:16:22.043Z,6.87
2022-10-30T06:18:50.062Z,6.63
2022-10-30T06:21:18.177Z,7.40
2022-10-30T06:23:49.395Z,6.77
2022-10-30T06:26:17.404Z,6.67
2022-10-30T06:28:45.339Z,6.03
2022-10-30T06:31:13.399Z,7.07
2022-10-30T06:33:41.711Z,6.33
2022-10-30T06:36:09.825Z,7.70
2022-10-30T06:38:37.691Z,7.07
2022-10-30T06:41:07.148Z,6.23
2022-10-30T06:43:35.360Z,7.93
2022-10-30T06:46:03.389Z,6.80
2022-10-30T06:48:31.571Z,6.97
2022-10-30T06:51:00.954Z,6.17
2022-10-30T06:53:28.947Z,6.63
2022-10-30T06:55:58.892Z,6.57
2022-10-30T06:58:30.474Z,6.63
2022-10-30T07:01:01.087Z,6.50
2022-10-30T07:03:29.054Z,7.33
2022-10-30T07:05:57.079Z,7.23
2022-10-30T07:08:25.052Z,7.50
2022-10-30T07:10:53.085Z,6.73
2022-10-30T07:13:21.133Z,7.87
2022-10-30T07:15:50.488Z,6.07
2022-10-30T07:18:18.437Z,8.27
2022-10-30T07:20:46.381Z,8.13
2022-10-30T07:23:14.384Z,9.90
2022-10-30T07:25:42.298Z,9.27
2022-10-30T07:28:10.236Z,7.67
2022-10-30T07:30:38.119Z,9.60
2022-10-30T07:33:08.887Z,7.87
2022-10-30T07:35:37.561Z,8.67
2022-10-30T07:38:07.482Z,8.17
2022-10-30T07:40:35.728Z,7.30
2022-10-30T07:43:05.247Z,8.53
2022-10-30T07:45:33.908Z,8.63
2022-10-30T07:48:02.440Z,8.13
2022-10-30T07:50:32.192Z,8.00
2022-10-30T07:53:00.183Z,8.30
2022-10-30T07:55:28.145Z,9.77
2022-10-30T07:57:56.405Z,9.40
2022-10-30T08:00:24.854Z,8.70
2022-10-30T08:02:57.272Z,7.60
2022-10-30T08:05:29.128Z,7.20
2022-10-30T08:07:59.756Z,9.73
2022-10-30T08:10:28.197Z,8.03
2022-10-30T08:12:56.123Z,9.27
2022-10-30T08:15:24.458Z,8.03
2022-10-30T08:17:53.188Z,8.03
2022-10-30T08:20:23.107Z,9.37
2022-10-30T08:22:52.184Z,9.10
2022-10-30T08:25:23.072Z,8.87
2022-10-30T08:27:53.333Z,8.73
2022-10-30T08:30:21.471Z,7.53
2022-10-30T08:32:49.507Z,7.68
2022-10-30T08:35:20.142Z,9.18
2022-10-30T08:37:48.317Z,7.05
2022-10-30T08:40:16.378Z,7.15
2022-10-30T08:42:51.573Z,6.90
2022-10-30T08:45:19.896Z,6.70
2022-10-30T08:47:47.818Z,7.22
2022-10-30T08:50:15.961Z,7.18
2022-10-30T08:52:44.060Z,6.38
2022-10-30T08:55:12.048Z,6.68
2022-10-30T08:57:40.093Z,6.90
2022-10-30T09:00:10.588Z,6.90
2022-10-30T09:02:40.490Z,6.63
2022-10-30T09:05:09.603Z,6.78
2022-10-30T09:07:37.807Z,5.97
2022-10-30T09:10:07.600Z,7.07
2022-10-30T09:12:35.787Z,5.70
2022-10-30T09:15:04.167Z,5.43
2022-10-30T09:17:33.555Z,5.63
2022-10-30T09:20:01.498Z,5.68
2022-10-30T09:22:29.487Z,6.00
2022-10-30T09:24:57.461Z,5.60
2022-10-30T09:27:25.628Z,5.50
2022-10-30T09:29:53.578Z,4.90
2022-10-30T09:32:21.470Z,5.43
2022-10-30T09:34:50.794Z,4.50
2022-10-30T09:37:19.220Z,5.50
2022-10-30T09:39:47.242Z,4.80
2022-10-30T09:42:37.675Z,4.70
2022-10-30T09:45:30.084Z,3.70
2022-10-30T09:48:12.288Z,3.13
2022-10-30T09:50:54.794Z,3.50
2022-10-30T09:53:30.436Z,3.40
2022-10-30T09:56:06.185Z,2.85
2022-10-30T09:58:45.456Z,3.53
2022-10-30T10:01:18.510Z,2.67
2022-10-30T10:03:59.406Z,2.85
2022-10-30T10:06:29.646Z,3.10
2022-10-30T10:09:03.763Z,3.22
2022-10-30T10:11:37.283Z,2.50
2022-10-30T10:14:10.192Z,2.92
2022-10-30T10:16:41.880Z,2.65
2022-10-30T10:19:15.741Z,3.47
2022-10-30T10:21:48.976Z,2.58
2022-10-30T10:24:22.065Z,4.68
2022-10-30T10:26:51.623Z,3.13
2022-10-30T10:29:35.078Z,2.78
2022-10-30T10:32:38.659Z,3.90
2022-10-30T10:35:34.431Z,2.60
2022-10-30T10:38:12.020Z,3.35
2022-10-30T10:40:51.163Z,2.75
2022-10-30T10:43:29.530Z,3.25
2022-10-30T10:46:11.666Z,2.83
2022-10-30T10:48:59.980Z,3.15
2022-10-30T10:51:32.246Z,2.63
2022-10-30T10:54:04.926Z,2.83
2022-10-30T10:56:37.044Z,3.42
2022-10-30T10:59:09.065Z,2.35
2022-10-30T11:01:40.763Z,3.08
2022-10-30T11:04:15.798Z,3.03
2022-10-30T11:06:48.872Z,2.30
2022-10-30T11:09:20.335Z,3.42
2022-10-30T11:11:49.021Z,2.72
2022-10-30T11:14:19.139Z,2.42
2022-10-30T11:17:03.469Z,2.63
2022-10-30T11:19:32.614Z,2.70
2022-10-30T11:22:02.070Z,2.60
2022-10-30T11:24:33.867Z,2.08
2022-10-30T11:27:25.032Z,2.63
2022-10-30T11:29:55.559Z,2.92
2022-10-30T11:32:30.559Z,2.65
2022-10-30T11:35:03.435Z,2.63
2022-10-30T11:37:32.928Z,2.15
2022-10-30T11:40:07.740Z,2.40
2022-10-30T11:42:36.309Z,2.33
2022-10-30T11:45:05.475Z,2.40
2022-10-30T11:50:07.400Z,2.97
2022-10-30T11:52:39.872Z,2.95
2022-10-30T11:55:17.478Z,2.55
2022-10-30T11:57:47.661Z,2.38
2022-10-30T12:00:24.481Z,2.85
2022-10-30T12:02:54.750Z,2.38
2022-10-30T12:05:36.039Z,3.40
2022-10-30T12:08:20.167Z,3.40
2022-10-30T12:11:00.544Z,3.05
2022-10-30T12:13:32.073Z,2.38
2022-10-30T12:16:09.509Z,2.75
2022-10-30T12:18:38.014Z,2.65
2022-10-30T12:21:06.107Z,2.42
2022-10-30T12:23:34.726Z,2.58
2022-10-30T12:26:11.571Z,3.05
2022-10-30T12:28:40.553Z,2.67
2022-10-30T12:31:14.675Z,2.50
2022-10-30T12:33:46.516Z,2.08
2022-10-30T12:36:17.660Z,2.83
2022-10-30T12:38:50.805Z,2.25
2022-10-30T12:41:24.849Z,2.25
2022-10-30T12:44:00.000Z,2.22
2022-10-30T12:46:34.888Z,2.75
2022-10-30T12:49:12.816Z,2.92
2022-10-30T12:51:48.358Z,2.20
2022-10-30T12:54:25.698Z,2.58
2022-10-30T12:57:09.333Z,2.55
2022-10-30T12:59:45.499Z,3.03
2022-10-30T13:02:22.806Z,3.03
2022-10-30T13:04:57.890Z,2.40
2022-10-30T13:07:31.080Z,2.55
2022-10-30T13:10:12.372Z,3.03
2022-10-30T13:12:44.903Z,2.10
2022-10-30T13:15:22.101Z,2.70
2022-10-30T13:17:50.939Z,2.58
2022-10-30T13:20:19.871Z,2.65
2022-10-30T13:22:51.963Z,2.85
2022-10-30T13:25:29.079Z,2.60
2022-10-30T13:28:05.788Z,2.65
2022-10-30T13:30:38.576Z,2.72
2022-10-30T13:33:13.181Z,3.03
2022-10-30T13:35:48.349Z,2.00
2022-10-30T13:38:34.178Z,2.40
2022-10-30T13:41:11.163Z,2.83
2022-10-30T13:43:48.516Z,3.05
2022-10-30T13:46:37.627Z,2.78
2022-10-30T13:49:20.696Z,2.70
2022-10-30T13:51:56.398Z,2.78
2022-10-30T13:54:29.837Z,2.75
2022-10-30T13:57:02.515Z,2.70
2022-10-30T13:59:57.115Z,2.65
2022-10-30T14:02:38.945Z,2.80
2022-10-30T14:05:19.425Z,3.08
2022-10-30T14:07:53.528Z,2.60
2022-10-30T14:10:33.299Z,2.70
2022-10-30T14:13:16.075Z,2.78
2022-10-30T14:15:47.123Z,4.10
2022-10-30T14:18:45.798Z,3.20
2022-10-30T14:21:53.525Z,3.33
2022-10-30T14:24:29.728Z,3.00
2022-10-30T14:27:12.336Z,2.60
2022-10-30T14:29:46.817Z,2.55
2022-10-30T14:32:48.923Z,3.65
2022-10-30T14:35:34.771Z,3.20
2022-10-30T14:38:26.383Z,3.38
2022-10-30T14:41:21.817Z,3.58
2022-10-30T14:44:00.645Z,3.22
2022-10-30T14:46:37.006Z,2.80
2022-10-30T14:49:26.069Z,3.70
2022-10-30T14:52:09.189Z,4.13
2022-10-30T14:54:46.583Z,4.30
2022-10-30T14:57:23.079Z,3.80
2022-10-30T15:00:10.979Z,4.32
2022-10-30T15:02:48.921Z,4.63
2022-10-30T15:05:42.690Z,3.83
2022-10-30T15:08:30.743Z,4.07
2022-10-30T15:11:19.559Z,3.90
2022-10-30T15:13:49.799Z,4.28
2022-10-30T15:16:22.088Z,4.60
2022-10-30T15:18:56.953Z,4.88
2022-10-30T15:21:29.689Z,3.65
2022-10-30T15:24:00.697Z,4.47
2022-10-30T15:26:35.253Z,4.68
2022-10-30T15:29:04.903Z,4.43
2022-10-30T15:31:33.423Z,4.00
2022-10-30T15:34:01.405Z,4.10
2022-10-30T15:36:41.465Z,4.20
2022-10-30T15:39:13.610Z,4.40
2022-10-30T15:41:45.823Z,4.28
2022-10-30T15:46:52.048Z,4.57
2022-10-30T15:49:29.769Z,4.27
2022-10-30T15:52:00.842Z,5.50
2022-10-30T15:54:30.164Z,4.50
2022-10-30T15:57:36.499Z,4.65
2022-10-30T15:59:52.196Z,4.80
2022-10-30T16:02:23.068Z,5.07
2022-10-30T16:04:51.478Z,5.07
2022-10-30T16:07:22.649Z,4.90
2022-10-30T16:09:55.096Z,6.27
2022-10-30T16:12:26.886Z,4.77
2022-10-30T16:14:55.434Z,5.17
2022-10-30T16:17:24.966Z,4.57
2022-10-30T16:19:55.457Z,5.33
2022-10-30T16:22:27.934Z,5.40
2022-10-30T16:24:57.916Z,4.93
2022-10-30T16:27:27.479Z,4.70
2022-10-30T16:29:59.360Z,4.97
2022-10-30T16:32:30.944Z,4.80
2022-10-30T16:35:00.789Z,5.23
2022-10-30T16:37:36.294Z,4.90
2022-10-30T16:40:07.777Z,4.80
2022-10-30T16:42:35.908Z,4.70
2022-10-30T16:45:46.000Z,5.27
2022-10-30T16:48:28.716Z,4.80
2022-10-30T16:51:02.296Z,4.33
2022-10-30T16:53:32.359Z,4.83
2022-10-30T16:56:00.840Z,4.77
2022-10-30T16:58:31.934Z,4.70
2022-10-30T17:01:05.077Z,4.73
2022-10-30T17:03:38.330Z,4.87
2022-10-30T17:06:25.739Z,6.13
2022-10-30T17:08:58.424Z,7.40
2022-10-30T17:11:38.188Z,5.27
2022-10-30T17:14:17.996Z,5.90
2022-10-30T17:16:54.907Z,5.27
2022-10-30T17:19:48.440Z,5.77
2022-10-30T17:22:20.592Z,5.33
2022-10-30T17:24:50.190Z,6.00
2022-10-30T17:27:31.648Z,6.00
2022-10-30T17:30:00.352Z,7.33
2022-10-30T17:32:29.710Z,6.33
2022-10-30T17:35:02.691Z,5.57
2022-10-30T17:37:30.628Z,6.77
2022-10-30T17:39:59.925Z,6.17
2022-10-30T17:42:27.954Z,7.63
2022-10-30T17:44:55.932Z,8.57
2022-10-30T17:47:24.083Z,9.63
2022-10-30T17:49:52.075Z,9.13
2022-10-30T17:52:21.640Z,12.43
2022-10-30T17:54:50.351Z,15.80
2022-10-30T17:57:19.818Z,13.97
2022-10-30T17:59:47.738Z,14.60
2022-10-30T18:02:18.034Z,11.83
2022-10-30T18:04:47.640Z,13.80
2022-10-30T18:07:17.819Z,14.43
2022-10-30T18:09:46.008Z,15.57
2022-10-30T18:12:15.833Z,17.37
2022-10-30T18:14:45.987Z,17.00
2022-10-30T18:17:14.133Z,17.33
2022-10-30T18:19:42.011Z,18.67
2022-10-30T18:22:11.518Z,16.63
2022-10-30T18:24:39.465Z,15.33
2022-10-30T18:27:07.529Z,11.73
2022-10-30T18:29:35.493Z,13.37
2022-10-30T18:32:09.468Z,12.23
2022-10-30T18:34:38.019Z,11.93
2022-10-30T18:37:05.862Z,11.73
2022-10-30T18:39:34.195Z,11.07
2022-10-30T18:42:02.201Z,11.13
2022-10-30T18:44:30.131Z,11.30
2022-10-30T18:47:02.780Z,11.40
2022-10-30T18:49:33.638Z,11.93
2022-10-30T18:52:01.476Z,11.37
2022-10-30T18:54:29.431Z,11.13
2022-10-30T18:56:57.280Z,11.20
2022-10-30T18:59:25.184Z,11.80
2022-10-30T19:01:53.901Z,10.77
2022-10-30T19:04:22.707Z,11.83
2022-10-30T19:06:52.053Z,12.33
2022-10-30T19:09:20.217Z,15.03
2022-10-30T19:11:48.202Z,12.60
2022-10-30T19:14:16.165Z,16.30
2022-10-30T19:16:44.276Z,13.80
2022-10-30T19:19:15.031Z,13.20
2022-10-30T19:21:43.176Z,16.07
2022-10-30T19:24:15.222Z,20.27
2022-10-30T19:26:43.550Z,18.40
2022-10-30T19:29:11.462Z,19.13
2022-10-30T19:31:39.607Z,18.27
2022-10-30T19:34:07.626Z,20.93
2022-10-30T19:36:37.410Z,22.10
2022-10-30T19:39:11.163Z,21.80
2022-10-30T19:41:41.236Z,19.90
2022-10-30T19:44:09.503Z,22.23
2022-10-30T19:46:37.784Z,26.87
2022-10-30T19:49:16.375Z,29.37
2022-10-30T19:51:44.706Z,27.27
2022-10-30T19:54:12.672Z,24.97
2022-10-30T19:56:43.573Z,24.97
2022-10-30T19:59:12.788Z,23.10
2022-10-30T20:01:41.830Z,22.10
2022-10-30T20:04:10.100Z,21.87
2022-10-30T20:06:38.171Z,23.10
2022-10-30T20:09:06.199Z,22.50
2022-10-30T20:11:34.507Z,22.00
2022-10-30T20:14:03.833Z,22.27
2022-10-30T20:16:31.892Z,24.47
2022-10-30T20:18:59.871Z,22.30
2022-10-30T20:21:28.839Z,23.83
2022-10-30T20:23:56.796Z,24.90
2022-10-30T20:26:27.956Z,25.13
2022-10-30T20:28:56.907Z,24.37
2022-10-30T20:31:26.337Z,25.83
2022-10-30T20:33:54.201Z,25.43
2022-10-30T20:36:22.225Z,26.10
2022-10-30T20:38:50.425Z,28.13
2022-10-30T20:41:23.347Z,28.57
2022-10-30T20:43:51.870Z,26.03
2022-10-30T20:46:20.432Z,29.80
2022-10-30T20:48:49.852Z,27.37
2022-10-30T20:51:17.802Z,29.30
2022-10-30T20:53:46.006Z,27.67
2022-10-30T20:56:14.041Z,26.63
2022-10-30T20:58:42.430Z,27.53
2022-10-30T21:03:50.418Z,28.10
2022-10-30T21:06:18.495Z,30.73
2022-10-30T21:08:46.465Z,30.10
2022-10-30T21:11:14.318Z,29.30
2022-10-30T21:13:42.242Z,27.70
2022-10-30T21:16:10.761Z,27.33
2022-10-30T21:18:38.789Z,28.83
2022-10-30T21:21:11.560Z,29.07
2022-10-30T21:23:39.645Z,26.70
2022-10-30T21:26:09.732Z,29.53
2022-10-30T21:28:38.118Z,29.00
2022-10-30T21:31:07.844Z,29.67
2022-10-30T21:33:37.237Z,30.87
2022-10-30T21:36:12.441Z,31.43
2022-10-30T21:38:42.671Z,29.67
2022-10-30T21:41:11.522Z,31.57
2022-10-30T21:43:39.536Z,29.33
2022-10-30T21:46:08.160Z,29.97
2022-10-30T21:48:36.186Z,27.67
2022-10-30T21:51:11.102Z,28.33
2022-10-30T21:53:39.476Z,30.80
2022-10-30T21:56:09.246Z,27.60
2022-10-30T21:58:37.425Z,28.80
2022-10-30T22:01:06.828Z,29.20
2022-10-30T22:03:35.380Z,29.27
2022-10-30T22:06:07.310Z,26.77
2022-10-30T22:08:36.816Z,26.13
2022-10-30T22:11:06.107Z,29.00
2022-10-30T22:13:34.773Z,25.93
2022-10-30T22:16:03.341Z,25.13
2022-10-30T22:18:31.864Z,25.20
2022-10-30T22:21:02.123Z,27.13
2022-10-30T22:23:30.350Z,26.40
2022-10-30T22:26:01.574Z,25.77
2022-10-30T22:28:31.164Z,25.83
2022-10-30T22:31:03.252Z,25.30
2022-10-30T22:33:32.058Z,27.63
2022-10-30T22:36:03.930Z,27.73
2022-10-30T22:38:31.965Z,25.87
2022-10-30T22:41:10.553Z,26.97
2022-10-30T22:43:38.642Z,28.07
2022-10-30T22:46:06.610Z,27.47
2022-10-30T22:48:34.623Z,25.43
2022-10-30T22:51:04.357Z,25.43
2022-10-30T22:53:33.174Z,25.17
2022-10-30T22:56:01.326Z,26.63
2022-10-30T22:58:31.375Z,24.00
2022-10-30T23:01:10.634Z,26.63
2022-10-30T23:03:38.818Z,22.50
2022-10-30T23:06:06.864Z,24.67
2022-10-30T23:08:35.025Z,22.47
2022-10-30T23:11:03.169Z,22.90
2022-10-30T23:13:32.888Z,22.90
2022-10-30T23:16:01.967Z,23.67
2022-10-30T23:18:30.199Z,21.43
2022-10-30T23:21:02.666Z,22.63
2022-10-30T23:23:30.722Z,20.97
2022-10-30T23:26:03.428Z,21.80
2022-10-30T23:28:33.005Z,22.43
2022-10-30T23:31:01.280Z,20.63
2022-10-30T23:33:29.310Z,22.50
2022-10-30T23:36:00.631Z,22.50
2022-10-30T23:38:28.915Z,22.67
2022-10-30T23:40:57.076Z,22.13
2022-10-30T23:43:25.349Z,21.87
2022-10-30T23:45:54.770Z,19.60
2022-10-30T23:48:22.716Z,24.03
2022-10-30T23:50:50.738Z,23.93
2022-10-30T23:53:18.893Z,22.13
2022-10-30T23:55:53.864Z,21.97
2022-10-30T23:58:22.329Z,21.37
